Aqualoyalty — A8ZC6 — position and weather

sailwx.info

Track history (hours):
 
Tides and Currents Weather Stations Pressure Air Temp Water Temp Dewpoint Dewpoint Depression Visibility Wind Speed Wind Dir Waves Ship Positions

Aqualoyalty

Last reported at 2016-Dec-26 15:24 UTC. Time now 2017-Jan-23 10:32 UTC.
Position S 32°60' W 071°56'.
Warning: this ship's position is 27 days out of date.

Length 249 m; draft 13.2 m.

Type: Ship. MMSI: 636015177.

Date/timePositionNaut miles runAvg speedWind from/ knotsBaromVisibWave heightAir tempDewpointWater temp
2016-Dec-26 15:24S 32°60' W 071°56'1211.6
2016-Dec-26 14:22S 32°51' W 071°46'911.2
2016-Dec-26 13:33S 32°45' W 071°38'6 0.2
2016-Dec-25 13:34S 32°45' W 071°31'0 0.4
2016-Dec-25 12:33S 32°44' W 071°31'0 0.0
2016-Dec-25 10:12S 32°44' W 071°31'0 0.0
2016-Dec-25 09:27S 32°44' W 071°31'0 0.0
2016-Dec-25 06:33S 32°44' W 071°31'0 0.0
2016-Dec-25 03:24S 32°45' W 071°31'0 0.0
2016-Dec-24 22:33S 32°44' W 071°31'0 0.0
2016-Dec-24 21:33S 32°44' W 071°31'0 0.0
2016-Dec-24 20:33S 32°44' W 071°31'0 0.0
2016-Dec-24 19:33S 32°44' W 071°31'0 0.1
2016-Dec-24 18:33S 32°45' W 071°31'0 0.0
2016-Dec-24 17:33S 32°45' W 071°31'0 0.0
2016-Dec-24 16:30S 32°45' W 071°31'0 0.2
2016-Dec-24 15:33S 32°44' W 071°31'2 2.2
2016-Dec-24 14:34S 32°45' W 071°34'9 9.3
2016-Dec-24 13:34S 32°42' W 071°45'1210.0
2016-Dec-24 12:19S 32°34' W 071°55'6 0.4
2016-Dec-23 23:16S 32°36' W 072°01'1 1.6
2016-Dec-23 22:34S 32°37' W 072°02'2 1.6
2016-Dec-23 21:33S 32°38' W 072°03'2 1.6
2016-Dec-23 20:33S 32°39' W 072°05'2 1.7
2016-Dec-23 19:33S 32°40' W 072°07'1 0.7
2016-Dec-23 18:33S 32°40' W 072°08'8 7.8
2016-Dec-23 17:34S 32°32' W 072°10'4 0.2
2016-Dec-22 23:19S 32°36' W 072°10'1 1.6
2016-Dec-22 22:23S 32°37' W 072°11'1 1.5
2016-Dec-22 21:33S 32°38' W 072°11'2 1.6
2016-Dec-22 20:34S 32°40' W 072°12'1 1.5
2016-Dec-22 19:33S 32°41' W 072°13'2 1.5
2016-Dec-22 18:34S 32°42' W 072°14'1 1.4
2016-Dec-22 17:34S 32°43' W 072°16'1 1.4
2016-Dec-22 16:33S 32°44' W 072°17'2 1.9
2016-Dec-22 15:34S 32°42' W 072°18'1010.2
2016-Dec-22 14:32S 32°32' W 072°19'12 0.3
2016-Dec-21 00:07S 32°39' W 072°06'0 0.7
2016-Dec-20 23:31S 32°39' W 072°07'1 0.7
2016-Dec-20 22:32S 32°39' W 072°08'1 0.6
2016-Dec-20 21:33S 32°39' W 072°08'1 0.6
2016-Dec-20 20:34S 32°40' W 072°09'2 0.3
2016-Dec-20 15:33S 32°41' W 072°10'0 0.3
2016-Dec-20 14:31S 32°41' W 072°11'0 0.4
2016-Dec-20 13:27S 32°41' W 072°11'0 0.4
2016-Dec-20 12:31S 32°42' W 072°11'1 0.5
2016-Dec-20 11:27S 32°42' W 072°11'1 0.5
2016-Dec-20 10:20S 32°43' W 072°11'0 0.5
2016-Dec-20 09:33S 32°43' W 072°12'6 0.6
2016-Dec-20 00:23S 32°46' W 072°17'1 1.2
2016-Dec-19 23:33S 32°47' W 072°18'1 0.9
2016-Dec-19 22:33S 32°47' W 072°19'4 4.4
2016-Dec-19 21:33S 32°44' W 072°15'13 0.6
2016-Dec-19 00:04S 32°31' W 072°17'5 9.3
2016-Dec-18 23:33S 32°26' W 072°18'  
Track history (hours):
 
Tides and Currents Weather Stations Pressure Air Temp Water Temp Dewpoint Dewpoint Depression Visibility Wind Speed Wind Dir Waves Ship Positions

Aqualoyalty

Last reported at 2016-Dec-26 15:24 UTC. Time now 2017-Jan-23 10:32 UTC.
Position S 32°60' W 071°56'.
Warning: this ship's position is 27 days out of date.

Length 249 m; draft 13.2 m.

Type: Ship. MMSI: 636015177.

Date/timePositionNaut miles runAvg speedWind from/ knotsBaromVisibWave heightAir tempDewpointWater temp
2016-Dec-26 15:24S 32°60' W 071°56'1211.6
2016-Dec-26 14:22S 32°51' W 071°46'911.2
2016-Dec-26 13:33S 32°45' W 071°38'6 0.2
2016-Dec-25 13:34S 32°45' W 071°31'0 0.4
2016-Dec-25 12:33S 32°44' W 071°31'0 0.0
2016-Dec-25 10:12S 32°44' W 071°31'0 0.0
2016-Dec-25 09:27S 32°44' W 071°31'0 0.0
2016-Dec-25 06:33S 32°44' W 071°31'0 0.0
2016-Dec-25 03:24S 32°45' W 071°31'0 0.0
2016-Dec-24 22:33S 32°44' W 071°31'0 0.0
2016-Dec-24 21:33S 32°44' W 071°31'0 0.0
2016-Dec-24 20:33S 32°44' W 071°31'0 0.0
2016-Dec-24 19:33S 32°44' W 071°31'0 0.1
2016-Dec-24 18:33S 32°45' W 071°31'0 0.0
2016-Dec-24 17:33S 32°45' W 071°31'0 0.0
2016-Dec-24 16:30S 32°45' W 071°31'0 0.2
2016-Dec-24 15:33S 32°44' W 071°31'2 2.2
2016-Dec-24 14:34S 32°45' W 071°34'9 9.3
2016-Dec-24 13:34S 32°42' W 071°45'1210.0
2016-Dec-24 12:19S 32°34' W 071°55'6 0.4
2016-Dec-23 23:16S 32°36' W 072°01'1 1.6
2016-Dec-23 22:34S 32°37' W 072°02'2 1.6
2016-Dec-23 21:33S 32°38' W 072°03'2 1.6
2016-Dec-23 20:33S 32°39' W 072°05'2 1.7
2016-Dec-23 19:33S 32°40' W 072°07'1 0.7
2016-Dec-23 18:33S 32°40' W 072°08'8 7.8
2016-Dec-23 17:34S 32°32' W 072°10'4 0.2
2016-Dec-22 23:19S 32°36' W 072°10'1 1.6
2016-Dec-22 22:23S 32°37' W 072°11'1 1.5
2016-Dec-22 21:33S 32°38' W 072°11'2 1.6
2016-Dec-22 20:34S 32°40' W 072°12'1 1.5
2016-Dec-22 19:33S 32°41' W 072°13'2 1.5
2016-Dec-22 18:34S 32°42' W 072°14'1 1.4
2016-Dec-22 17:34S 32°43' W 072°16'1 1.4
2016-Dec-22 16:33S 32°44' W 072°17'2 1.9
2016-Dec-22 15:34S 32°42' W 072°18'1010.2
2016-Dec-22 14:32S 32°32' W 072°19'12 0.3
2016-Dec-21 00:07S 32°39' W 072°06'0 0.7
2016-Dec-20 23:31S 32°39' W 072°07'1 0.7
2016-Dec-20 22:32S 32°39' W 072°08'1 0.6
2016-Dec-20 21:33S 32°39' W 072°08'1 0.6
2016-Dec-20 20:34S 32°40' W 072°09'2 0.3
2016-Dec-20 15:33S 32°41' W 072°10'0 0.3
2016-Dec-20 14:31S 32°41' W 072°11'0 0.4
2016-Dec-20 13:27S 32°41' W 072°11'0 0.4
2016-Dec-20 12:31S 32°42' W 072°11'1 0.5
2016-Dec-20 11:27S 32°42' W 072°11'1 0.5
2016-Dec-20 10:20S 32°43' W 072°11'0 0.5
2016-Dec-20 09:33S 32°43' W 072°12'6 0.6
2016-Dec-20 00:23S 32°46' W 072°17'1 1.2
2016-Dec-19 23:33S 32°47' W 072°18'1 0.9
2016-Dec-19 22:33S 32°47' W 072°19'4 4.4
2016-Dec-19 21:33S 32°44' W 072°15'13 0.6
2016-Dec-19 00:04S 32°31' W 072°17'5 9.3
2016-Dec-18 23:33S 32°26' W 072°18'  

Dump ship's entire track history